createdAt,value
2019-02-24T00:04:07.678Z,30.63
2019-02-24T00:06:55.302Z,30.60
2019-02-24T00:09:36.899Z,29.07
2019-02-24T00:12:05.416Z,29.79
2019-02-24T00:14:33.722Z,29.67
2019-02-24T00:17:02.344Z,31.66
2019-02-24T00:19:30.850Z,30.30
2019-02-24T00:21:59.093Z,29.78
2019-02-24T00:24:26.910Z,32.59
2019-02-24T00:26:55.232Z,33.15
2019-02-24T00:29:23.451Z,32.15
2019-02-24T00:31:51.738Z,33.85
2019-02-24T00:34:19.924Z,34.39
2019-02-24T00:36:47.885Z,33.13
2019-02-24T00:39:16.112Z,34.46
2019-02-24T00:41:44.436Z,33.63
2019-02-24T00:44:12.924Z,32.88
2019-02-24T00:46:41.217Z,34.36
2019-02-24T00:49:09.716Z,36.53
2019-02-24T00:51:37.975Z,35.93
2019-02-24T00:54:05.890Z,34.39
2019-02-24T00:56:34.443Z,35.94
2019-02-24T00:59:02.720Z,36.81
2019-02-24T01:01:30.927Z,35.69
2019-02-24T01:03:58.871Z,32.16
2019-02-24T01:06:27.399Z,35.72
2019-02-24T01:08:55.631Z,35.83
2019-02-24T01:11:24.223Z,34.60
2019-02-24T01:13:53.917Z,34.17
2019-02-24T01:16:29.095Z,33.40
2019-02-24T01:19:09.080Z,35.59
2019-02-24T01:21:36.932Z,36.62
2019-02-24T01:24:05.703Z,35.65
2019-02-24T01:26:33.600Z,35.63
2019-02-24T01:29:02.261Z,35.05
2019-02-24T01:31:30.160Z,34.80
2019-02-24T01:33:58.409Z,34.87
2019-02-24T01:36:26.999Z,34.38
2019-02-24T01:38:55.276Z,34.50
2019-02-24T01:41:22.756Z,35.53
2019-02-24T01:43:51.237Z,37.37
2019-02-24T01:46:19.414Z,34.88
2019-02-24T01:48:47.298Z,33.89
2019-02-24T01:51:15.484Z,36.14
2019-02-24T01:53:43.767Z,36.34
2019-02-24T01:56:11.995Z,37.14
2019-02-24T01:58:39.864Z,39.46
2019-02-24T02:01:08.079Z,34.47
2019-02-24T02:03:36.288Z,37.58
2019-02-24T02:06:04.899Z,37.04
2019-02-24T02:08:33.443Z,39.73
2019-02-24T02:11:01.728Z,38.25
2019-02-24T02:13:30.337Z,38.52
2019-02-24T02:15:58.192Z,34.06
2019-02-24T02:18:26.394Z,36.86
2019-02-24T02:20:54.914Z,39.21
2019-02-24T02:23:23.460Z,39.94
2019-02-24T02:25:51.809Z,37.48
2019-02-24T02:28:20.321Z,40.34
2019-02-24T02:30:48.898Z,40.01
2019-02-24T02:33:17.199Z,39.69
2019-02-24T02:35:45.569Z,41.64
2019-02-24T02:38:13.811Z,41.29
2019-02-24T02:40:42.041Z,42.57
2019-02-24T02:43:10.631Z,40.22
2019-02-24T02:45:38.484Z,43.27
2019-02-24T02:48:06.668Z,41.70
2019-02-24T02:50:35.249Z,42.13
2019-02-24T02:53:03.178Z,42.02
2019-02-24T02:55:31.353Z,42.49
2019-02-24T02:57:59.822Z,45.87
2019-02-24T03:03:29.831Z,39.49
2019-02-24T03:06:17.279Z,43.11
2019-02-24T03:08:46.983Z,43.83
2019-02-24T03:11:15.931Z,42.94
2019-02-24T03:13:44.261Z,44.82
2019-02-24T03:16:12.209Z,44.71
2019-02-24T03:18:40.283Z,44.44
2019-02-24T03:21:08.812Z,44.58
2019-02-24T03:23:37.377Z,45.33
2019-02-24T03:26:05.881Z,45.19
2019-02-24T03:28:34.143Z,45.79
2019-02-24T03:31:02.445Z,43.27
2019-02-24T03:33:30.336Z,43.19
2019-02-24T03:35:58.583Z,45.82
2019-02-24T03:38:27.117Z,45.00
2019-02-24T03:40:55.758Z,42.86
2019-02-24T03:43:24.062Z,43.51
2019-02-24T03:45:52.315Z,43.12
2019-02-24T03:48:20.578Z,45.90
2019-02-24T03:50:49.193Z,44.65
2019-02-24T03:53:17.119Z,45.91
2019-02-24T03:55:45.353Z,47.37
2019-02-24T03:58:13.318Z,47.69
2019-02-24T04:00:41.510Z,46.67
2019-02-24T04:03:09.013Z,49.06
2019-02-24T04:05:36.908Z,48.49
2019-02-24T04:08:05.538Z,46.32
2019-02-24T04:10:34.118Z,45.40
2019-02-24T04:13:02.290Z,46.89
2019-02-24T04:15:30.825Z,48.67
2019-02-24T04:17:59.333Z,49.18
2019-02-24T04:20:27.888Z,46.74
2019-02-24T04:22:56.191Z,45.91
2019-02-24T04:25:24.005Z,48.59
2019-02-24T04:27:52.236Z,46.87
2019-02-24T04:30:19.783Z,46.52
2019-02-24T04:32:47.947Z,47.35
2019-02-24T04:35:16.525Z,48.53
2019-02-24T04:37:45.034Z,47.54
2019-02-24T04:40:13.614Z,47.34
2019-02-24T04:42:41.885Z,48.18
2019-02-24T04:45:09.677Z,48.73
2019-02-24T04:47:37.835Z,47.53
2019-02-24T04:50:06.151Z,48.17
2019-02-24T04:52:34.381Z,48.24
2019-02-24T04:55:02.678Z,49.36
2019-02-24T04:57:30.589Z,48.41
2019-02-24T04:59:58.832Z,48.97
2019-02-24T05:02:27.419Z,49.30
2019-02-24T05:04:55.188Z,48.69
2019-02-24T05:07:23.473Z,49.64
2019-02-24T05:09:52.043Z,50.57
2019-02-24T05:12:20.646Z,50.25
2019-02-24T05:14:48.791Z,50.57
2019-02-24T05:17:16.388Z,50.90
2019-02-24T05:19:44.605Z,49.58
2019-02-24T05:22:13.159Z,50.99
2019-02-24T05:24:41.395Z,51.89
2019-02-24T05:27:09.647Z,50.19
2019-02-24T05:29:45.461Z,50.78
2019-02-24T05:32:14.175Z,51.67
2019-02-24T05:34:42.467Z,51.19
2019-02-24T05:37:10.731Z,50.51
2019-02-24T05:39:39.331Z,48.12
2019-02-24T05:42:07.608Z,45.76
2019-02-24T05:44:35.823Z,47.17
2019-02-24T05:47:03.763Z,46.84
2019-02-24T05:49:32.351Z,49.02
2019-02-24T05:52:00.544Z,46.56
2019-02-24T05:54:28.722Z,45.88
2019-02-24T05:56:56.890Z,45.76
2019-02-24T05:59:25.594Z,46.62
2019-02-24T06:01:53.216Z,47.30
2019-02-24T06:04:21.836Z,45.89
2019-02-24T06:06:50.556Z,46.75
2019-02-24T06:09:19.139Z,48.50
2019-02-24T06:11:47.632Z,46.84
2019-02-24T06:14:15.788Z,46.78
2019-02-24T06:16:43.996Z,45.38
2019-02-24T06:19:12.356Z,46.58
2019-02-24T06:21:40.634Z,48.74
2019-02-24T06:24:09.274Z,48.84
2019-02-24T06:26:37.201Z,45.99
2019-02-24T06:29:05.470Z,42.34
2019-02-24T06:31:33.758Z,43.82
2019-02-24T06:34:01.736Z,42.51
2019-02-24T06:36:30.344Z,43.28
2019-02-24T06:38:58.966Z,44.24
2019-02-24T06:41:27.287Z,46.01
2019-02-24T06:43:55.494Z,44.89
2019-02-24T06:46:24.170Z,45.02
2019-02-24T06:48:52.381Z,46.29
2019-02-24T06:51:20.984Z,45.09
2019-02-24T06:53:49.662Z,43.04
2019-02-24T06:56:17.570Z,43.91
2019-02-24T06:58:45.781Z,44.27
2019-02-24T07:01:14.369Z,42.22
2019-02-24T07:03:42.958Z,42.68
2019-02-24T07:06:10.840Z,40.29
2019-02-24T07:08:39.124Z,39.55
2019-02-24T07:11:07.808Z,40.64
2019-02-24T07:13:36.025Z,37.83
2019-02-24T07:16:04.652Z,39.02
2019-02-24T07:18:33.015Z,40.07
2019-02-24T07:21:01.356Z,38.07
2019-02-24T07:23:29.716Z,39.13
2019-02-24T07:25:58.367Z,37.32
2019-02-24T07:28:26.600Z,40.37
2019-02-24T07:30:54.854Z,38.32
2019-02-24T07:33:22.815Z,38.66
2019-02-24T07:35:51.171Z,39.08
2019-02-24T07:38:19.340Z,39.86
2019-02-24T07:40:48.000Z,40.00
2019-02-24T07:43:15.879Z,39.30
2019-02-24T07:45:44.192Z,35.83
2019-02-24T07:48:12.460Z,36.59
2019-02-24T07:50:40.956Z,37.54
2019-02-24T07:53:08.809Z,37.20
2019-02-24T07:55:37.439Z,39.51
2019-02-24T07:58:05.565Z,38.63
2019-02-24T08:00:34.106Z,37.37
2019-02-24T08:03:02.104Z,36.72
2019-02-24T08:05:31.085Z,37.08
2019-02-24T08:07:58.679Z,36.61
2019-02-24T08:10:26.911Z,35.84
2019-02-24T08:12:54.828Z,35.36
2019-02-24T08:15:23.040Z,35.83
2019-02-24T08:17:51.626Z,34.83
2019-02-24T08:20:20.222Z,38.81
2019-02-24T08:22:48.515Z,35.92
2019-02-24T08:25:17.093Z,36.55
2019-02-24T08:27:45.268Z,35.29
2019-02-24T08:30:13.555Z,36.19
2019-02-24T08:32:41.824Z,35.71
2019-02-24T08:35:09.773Z,34.36
2019-02-24T08:37:38.496Z,35.06
2019-02-24T08:40:47.458Z,34.15
2019-02-24T08:43:46.724Z,35.53
2019-02-24T08:51:55.774Z,36.59
2019-02-24T08:54:24.065Z,36.92
2019-02-24T08:56:52.582Z,38.21
2019-02-24T09:00:01.254Z,35.76
2019-02-24T09:02:29.565Z,35.08
2019-02-24T09:04:58.202Z,36.19
2019-02-24T09:07:26.721Z,34.76
2019-02-24T09:10:06.815Z,36.29
2019-02-24T09:15:36.456Z,34.81
2019-02-24T09:18:05.170Z,36.54
2019-02-24T09:20:33.940Z,35.16
2019-02-24T09:23:02.461Z,33.38
2019-02-24T09:25:30.801Z,33.16
2019-02-24T09:27:58.984Z,35.01
2019-02-24T09:30:27.623Z,32.42
2019-02-24T09:32:55.832Z,33.31
2019-02-24T09:35:24.179Z,30.54
2019-02-24T09:37:52.448Z,29.19
2019-02-24T09:40:20.329Z,30.70
2019-02-24T09:42:49.104Z,27.44
2019-02-24T09:45:16.702Z,29.08
2019-02-24T09:47:47.123Z,26.83
2019-02-24T09:50:25.200Z,25.18
2019-02-24T09:52:53.060Z,26.28
2019-02-24T10:04:37.016Z,22.98
2019-02-24T10:07:05.416Z,21.00
2019-02-24T10:09:34.129Z,22.15
2019-02-24T10:12:01.987Z,22.74
2019-02-24T10:14:30.416Z,22.82
2019-02-24T10:16:59.155Z,22.66
2019-02-24T10:19:27.529Z,21.90
2019-02-24T10:21:55.907Z,21.02
2019-02-24T10:24:23.865Z,18.55
2019-02-24T10:27:31.839Z,19.23
2019-02-24T10:30:12.201Z,18.97
2019-02-24T10:35:39.155Z,18.36
2019-02-24T10:38:07.261Z,15.70
2019-02-24T10:40:35.656Z,16.70
2019-02-24T10:43:03.554Z,16.34
2019-02-24T10:45:31.471Z,14.41
2019-02-24T10:47:59.048Z,14.41
2019-02-24T10:50:27.672Z,14.21
2019-02-24T10:52:55.940Z,14.71
2019-02-24T10:55:24.287Z,14.46
2019-02-24T10:57:52.607Z,15.88
2019-02-24T11:00:20.999Z,16.29
2019-02-24T11:02:48.910Z,15.64
2019-02-24T11:05:29.514Z,15.84
2019-02-24T11:07:57.497Z,14.24
2019-02-24T11:10:25.064Z,15.43
2019-02-24T11:12:53.287Z,14.81
2019-02-24T11:15:21.940Z,15.70
2019-02-24T11:17:50.269Z,15.26
2019-02-24T11:20:18.397Z,14.44
2019-02-24T11:22:47.109Z,16.83
2019-02-24T11:25:15.674Z,16.40
2019-02-24T11:27:43.967Z,15.12
2019-02-24T11:30:12.264Z,16.47
2019-02-24T11:32:40.160Z,15.61
2019-02-24T11:35:08.512Z,15.60
2019-02-24T11:37:36.416Z,17.94
2019-02-24T11:40:05.362Z,18.11
2019-02-24T11:42:34.050Z,16.98
2019-02-24T11:45:01.840Z,18.90
2019-02-24T11:47:30.224Z,19.82
2019-02-24T11:49:58.817Z,17.90
2019-02-24T11:52:27.175Z,19.11
2019-02-24T11:54:55.610Z,19.12
2019-02-24T11:57:24.087Z,19.72
2019-02-24T12:02:55.072Z,19.44
2019-02-24T12:05:23.046Z,17.57
2019-02-24T12:07:51.386Z,18.35
2019-02-24T12:10:19.666Z,15.76
2019-02-24T12:12:47.606Z,17.72
2019-02-24T12:15:15.402Z,16.55
2019-02-24T12:17:43.696Z,17.73
2019-02-24T12:20:11.302Z,16.38
2019-02-24T12:22:39.990Z,17.03
2019-02-24T12:25:08.477Z,15.33
2019-02-24T12:27:36.708Z,19.40
2019-02-24T12:30:05.602Z,16.40
2019-02-24T12:32:34.399Z,15.44
2019-02-24T12:35:03.017Z,16.96
2019-02-24T12:37:31.205Z,17.73
2019-02-24T12:39:59.201Z,17.49
2019-02-24T12:42:27.831Z,18.92
2019-02-24T12:44:56.421Z,19.30
2019-02-24T12:47:24.647Z,17.18
2019-02-24T12:49:53.346Z,16.66
2019-02-24T12:52:21.604Z,17.66
2019-02-24T12:54:49.857Z,19.06
2019-02-24T12:57:18.458Z,19.20
2019-02-24T12:59:46.317Z,18.24
2019-02-24T13:02:14.565Z,17.42
2019-02-24T13:04:42.782Z,16.64
2019-02-24T13:07:11.420Z,17.12
2019-02-24T13:09:40.066Z,18.25
2019-02-24T13:12:08.884Z,16.31
2019-02-24T13:14:37.395Z,18.14
2019-02-24T13:17:06.011Z,17.76
2019-02-24T13:19:34.631Z,16.98
2019-02-24T13:22:03.517Z,16.67
2019-02-24T13:24:32.077Z,19.36
2019-02-24T13:27:00.286Z,17.31
2019-02-24T13:29:28.473Z,16.90
2019-02-24T13:31:57.061Z,19.48
2019-02-24T13:34:25.287Z,15.09
2019-02-24T13:42:55.898Z,17.11
2019-02-24T13:45:24.623Z,16.72
2019-02-24T13:47:52.850Z,16.89
2019-02-24T13:50:21.485Z,16.93
2019-02-24T13:52:50.236Z,16.74
2019-02-24T13:55:49.566Z,14.73
2019-02-24T13:58:29.630Z,14.75
2019-02-24T14:04:18.645Z,15.69
2019-02-24T14:06:47.228Z,15.69
2019-02-24T14:09:15.555Z,14.48
2019-02-24T14:11:43.887Z,16.00
2019-02-24T14:14:12.503Z,15.28
2019-02-24T14:16:41.185Z,14.59
2019-02-24T14:19:09.488Z,14.64
2019-02-24T14:21:37.816Z,15.27
2019-02-24T14:24:06.556Z,16.73
2019-02-24T14:26:46.657Z,16.59
2019-02-24T14:29:26.593Z,15.79
2019-02-24T14:32:06.361Z,16.09
2019-02-24T14:35:14.985Z,16.09
2019-02-24T14:37:55.191Z,15.13
2019-02-24T14:40:23.516Z,16.84
2019-02-24T14:43:32.116Z,16.58
2019-02-24T14:49:01.011Z,16.44
2019-02-24T15:00:40.558Z,16.46
2019-02-24T15:03:09.171Z,15.34
2019-02-24T15:05:37.744Z,13.42
2019-02-24T15:13:49.169Z,14.91
2019-02-24T15:16:17.562Z,15.27
2019-02-24T15:21:48.402Z,14.63
2019-02-24T15:24:16.673Z,13.55
2019-02-24T15:30:26.141Z,14.33
2019-02-24T15:32:54.606Z,14.43
2019-02-24T15:38:25.228Z,12.72
2019-02-24T15:40:53.457Z,12.03
2019-02-24T15:43:21.756Z,12.48
2019-02-24T15:45:50.378Z,13.62
2019-02-24T15:48:18.989Z,13.64
2019-02-24T15:50:46.856Z,13.18
2019-02-24T15:53:15.629Z,13.38
2019-02-24T15:55:43.547Z,12.83
2019-02-24T15:58:11.931Z,12.34
2019-02-24T16:00:39.863Z,13.16
2019-02-24T16:03:08.295Z,14.65
2019-02-24T16:05:36.925Z,15.72
2019-02-24T16:08:05.141Z,18.34
2019-02-24T16:10:33.838Z,17.93
2019-02-24T16:13:02.596Z,20.27
2019-02-24T16:15:30.610Z,22.12
2019-02-24T16:17:58.574Z,22.47
2019-02-24T16:20:27.040Z,21.98
2019-02-24T16:22:55.436Z,25.59
2019-02-24T16:25:23.711Z,26.48
2019-02-24T16:27:51.676Z,25.84
2019-02-24T16:30:20.223Z,27.09
2019-02-24T16:32:48.870Z,28.43
2019-02-24T16:35:17.176Z,26.98
2019-02-24T16:37:45.747Z,26.72
2019-02-24T16:40:15.383Z,26.42
2019-02-24T16:42:43.330Z,27.89
2019-02-24T16:45:11.559Z,28.99
2019-02-24T16:47:40.295Z,28.20
2019-02-24T16:50:10.378Z,30.72
2019-02-24T16:52:38.655Z,30.34
2019-02-24T16:55:07.626Z,31.28
2019-02-24T16:57:36.001Z,31.72
2019-02-24T17:00:45.039Z,31.50
2019-02-24T17:03:19.637Z,32.33
2019-02-24T17:05:49.557Z,34.04
2019-02-24T17:08:17.784Z,34.15
2019-02-24T17:10:46.110Z,34.41
2019-02-24T17:13:14.563Z,35.43
2019-02-24T17:15:42.841Z,35.02
2019-02-24T17:18:11.052Z,33.54
2019-02-24T17:20:39.431Z,34.32
2019-02-24T17:23:07.674Z,34.90
2019-02-24T17:25:35.744Z,34.85
2019-02-24T17:28:04.283Z,37.18
2019-02-24T17:30:32.593Z,37.17
2019-02-24T17:33:01.275Z,37.06
2019-02-24T17:35:29.856Z,38.23
2019-02-24T17:37:58.176Z,39.46
2019-02-24T17:40:26.857Z,39.41
2019-02-24T17:42:55.244Z,40.54
2019-02-24T17:45:24.033Z,41.70
2019-02-24T17:47:52.797Z,42.22
2019-02-24T17:50:21.592Z,42.36
2019-02-24T17:52:49.864Z,45.68
2019-02-24T17:55:18.187Z,44.41
2019-02-24T17:57:46.101Z,43.27
2019-02-24T18:03:15.451Z,44.29
2019-02-24T18:05:43.046Z,45.89
2019-02-24T18:08:11.392Z,45.88
2019-02-24T18:10:39.851Z,46.89
2019-02-24T18:13:08.564Z,46.42
2019-02-24T18:15:37.147Z,47.21
2019-02-24T18:18:04.751Z,47.43
2019-02-24T18:20:32.681Z,47.53
2019-02-24T18:23:00.639Z,47.69
2019-02-24T18:25:28.956Z,47.39
2019-02-24T18:27:57.344Z,48.56
2019-02-24T18:30:25.227Z,48.53
2019-02-24T18:32:53.524Z,49.55
2019-02-24T18:35:22.187Z,50.41
2019-02-24T18:37:50.813Z,50.48
2019-02-24T18:40:19.567Z,50.70
2019-02-24T18:42:48.082Z,51.24
2019-02-24T18:45:16.984Z,52.12
2019-02-24T18:47:45.319Z,51.67
2019-02-24T18:50:13.319Z,51.45
2019-02-24T18:52:41.604Z,52.58
2019-02-24T18:55:09.660Z,52.73
2019-02-24T18:57:38.353Z,52.03
2019-02-24T19:00:47.132Z,53.55
2019-02-24T19:03:16.077Z,53.86
2019-02-24T19:05:44.848Z,54.34
2019-02-24T19:08:15.275Z,54.92
2019-02-24T19:10:43.718Z,56.20
2019-02-24T19:13:11.968Z,54.88
2019-02-24T19:15:40.577Z,54.81
2019-02-24T19:18:08.955Z,54.68
2019-02-24T19:20:37.286Z,54.62
2019-02-24T19:23:05.708Z,55.42
2019-02-24T19:25:34.029Z,54.20
2019-02-24T19:28:02.368Z,55.64
2019-02-24T19:30:31.040Z,54.86
2019-02-24T19:32:59.570Z,55.37
2019-02-24T19:35:27.930Z,53.95
2019-02-24T19:37:56.342Z,54.49
2019-02-24T19:40:25.041Z,53.63
2019-02-24T19:42:53.798Z,53.44
2019-02-24T19:45:22.091Z,53.99
2019-02-24T19:47:50.112Z,53.26
2019-02-24T19:50:18.034Z,52.43
2019-02-24T19:52:46.706Z,52.52
2019-02-24T19:55:14.691Z,51.74
2019-02-24T19:57:43.078Z,49.22
2019-02-24T20:06:15.536Z,49.37
2019-02-24T20:08:43.972Z,48.31
2019-02-24T20:11:14.179Z,49.02
2019-02-24T20:13:42.071Z,47.90
2019-02-24T20:16:10.422Z,48.04
2019-02-24T20:18:38.909Z,44.43
2019-02-24T20:21:07.973Z,45.07
2019-02-24T20:23:43.898Z,46.48
2019-02-24T20:26:11.940Z,41.35
2019-02-24T20:28:40.186Z,44.83
2019-02-24T20:31:08.854Z,46.90
2019-02-24T20:33:37.633Z,44.80
2019-02-24T20:36:06.007Z,42.70
2019-02-24T20:42:22.284Z,43.33
2019-02-24T20:44:51.909Z,40.47
2019-02-24T20:50:02.968Z,41.61
2019-02-24T20:52:32.383Z,41.16
2019-02-24T20:55:01.158Z,39.18
2019-02-24T20:57:29.986Z,38.84
2019-02-24T21:03:11.100Z,36.11
2019-02-24T21:05:39.823Z,38.85
2019-02-24T21:08:27.809Z,39.12
2019-02-24T21:10:56.518Z,37.59
2019-02-24T21:13:25.400Z,34.69
2019-02-24T21:16:12.692Z,37.85
2019-02-24T21:19:00.003Z,37.85
2019-02-24T21:21:56.544Z,38.45
2019-02-24T21:24:25.061Z,37.79
2019-02-24T21:27:13.474Z,36.79
2019-02-24T21:32:41.888Z,34.79
2019-02-24T21:38:18.734Z,34.60
2019-02-24T21:41:06.386Z,35.88
2019-02-24T21:43:35.748Z,36.11
2019-02-24T21:49:43.919Z,35.13
2019-02-24T21:55:26.084Z,36.74
2019-02-24T22:01:34.491Z,36.55
2019-02-24T22:04:03.034Z,35.55
2019-02-24T22:06:32.040Z,30.20
2019-02-24T22:09:19.989Z,34.72
2019-02-24T22:11:48.521Z,30.35
2019-02-24T22:14:36.095Z,29.39
2019-02-24T22:17:04.917Z,30.81
2019-02-24T22:19:33.488Z,32.74
2019-02-24T22:22:02.055Z,35.54
2019-02-24T22:24:30.274Z,35.48
2019-02-24T22:26:59.911Z,35.19
2019-02-24T22:29:38.808Z,31.84
2019-02-24T22:32:07.313Z,33.99
2019-02-24T22:34:35.593Z,32.66
2019-02-24T22:37:03.827Z,33.69
2019-02-24T22:39:32.023Z,33.58
2019-02-24T22:42:00.708Z,38.17
2019-02-24T22:44:29.159Z,37.75
2019-02-24T22:50:15.919Z,38.40
2019-02-24T22:52:55.541Z,37.26
2019-02-24T22:55:23.965Z,38.77
2019-02-24T22:57:54.117Z,39.14
2019-02-24T23:01:02.475Z,39.62
2019-02-24T23:04:12.395Z,38.34
2019-02-24T23:06:41.611Z,41.18
2019-02-24T23:09:52.599Z,41.47
2019-02-24T23:12:48.923Z,40.97
2019-02-24T23:15:18.135Z,40.01
2019-02-24T23:18:06.193Z,39.05
2019-02-24T23:20:54.152Z,41.58
2019-02-24T23:23:22.654Z,38.08
2019-02-24T23:25:52.229Z,34.48
2019-02-24T23:28:21.233Z,37.48
2019-02-24T23:30:49.868Z,37.20
2019-02-24T23:33:18.960Z,38.89
2019-02-24T23:35:47.947Z,36.20
2019-02-24T23:38:16.545Z,38.90
2019-02-24T23:40:44.755Z,35.36
2019-02-24T23:43:12.616Z,34.16
2019-02-24T23:45:40.462Z,35.56
2019-02-24T23:48:08.385Z,35.02
2019-02-24T23:50:36.983Z,37.58
2019-02-24T23:53:05.424Z,36.09
2019-02-24T23:55:34.086Z,34.85
2019-02-24T23:58:02.344Z,33.60
